Yarbo, Alabama
Current Conditions -  °F | °C
As of 6:58 PM on Tuesday 21 Oct 2014 (Local Time) from KMEI Reporting Station
Clear Clear  
Wind Chill: 64°   Ceiling: Unl
Heat Index: 64°   Visibility: 10mi
Dew Point: 58°   Wind: 0mph
Humidity: 80%   Direction: NA
Pressure: 30"   Gusts: NA
Location:  31.6272°N, 88.354°W
Report Text: KMEI 212358Z 00000KT 10SM CLR 18/14 A3000 RMK AO2 SLP159 T01780144 10261 20172 55000
Loading
Personal Weather Stations






























Interactive Weather Map
Tropical Storm Tracking
New forecast layout! Learn more

10-Day Weather Forecast

Advertisements
Track Severe Weather on mobile